Terminal Aerodrome Forecast
Issued by NWS

Home | Current Version | Previous Version | Text Only | Print | Product List | Glossary On
Versions: 1 2 3 4 5 6 7 8 9 10 11 12
639
FTUS46 KSTO 011733
TAFRBL
TAF
KRBL 011733Z 0118/0218 VRB04KT P6SM SKC
     FM012200 18006KT P6SM SKC
     FM020300 VRB04KT P6SM FEW080
     FM021500 16006KT P6SM -RA OVC050=

USA.gov is the U.S. government's official web portal to all federal, state and local government web resources and services.